sensor_id;sensor_type;location;lat;lon;timestamp;temperature;humidity
2523;DHT22;1272;53.332;9.860;2022-12-24T00:02:19;5.70;99.90
2523;DHT22;1272;53.332;9.860;2022-12-24T00:04:45;5.70;99.90
2523;DHT22;1272;53.332;9.860;2022-12-24T00:07:11;5.70;99.90
2523;DHT22;1272;53.332;9.860;2022-12-24T00:09:37;5.70;99.90
2523;DHT22;1272;53.332;9.860;2022-12-24T00:12:03;5.70;99.90
2523;DHT22;1272;53.332;9.860;2022-12-24T00:14:29;5.60;99.90
2523;DHT22;1272;53.332;9.860;2022-12-24T00:16:55;5.60;99.90
2523;DHT22;1272;53.332;9.860;2022-12-24T00:19:21;5.60;99.90
2523;DHT22;1272;53.332;9.860;2022-12-24T00:21:46;5.70;99.90
2523;DHT22;1272;53.332;9.860;2022-12-24T00:24:12;5.70;99.90
2523;DHT22;1272;53.332;9.860;2022-12-24T00:26:38;5.70;99.90
2523;DHT22;1272;53.332;9.860;2022-12-24T00:29:03;5.70;99.90
2523;DHT22;1272;53.332;9.860;2022-12-24T00:31:29;5.70;99.90
2523;DHT22;1272;53.332;9.860;2022-12-24T00:33:55;5.60;99.90
2523;DHT22;1272;53.332;9.860;2022-12-24T00:36:22;5.70;99.90
2523;DHT22;1272;53.332;9.860;2022-12-24T00:38:47;5.70;99.90
2523;DHT22;1272;53.332;9.860;2022-12-24T00:41:16;5.60;99.90
2523;DHT22;1272;53.332;9.860;2022-12-24T00:43:58;5.70;99.90
2523;DHT22;1272;53.332;9.860;2022-12-24T00:46:25;5.70;99.90
2523;DHT22;1272;53.332;9.860;2022-12-24T00:48:51;5.70;99.90
2523;DHT22;1272;53.332;9.860;2022-12-24T00:51:18;5.70;99.90
2523;DHT22;1272;53.332;9.860;2022-12-24T00:53:44;5.70;99.90
2523;DHT22;1272;53.332;9.860;2022-12-24T00:56:10;5.70;99.90
2523;DHT22;1272;53.332;9.860;2022-12-24T00:58:36;5.70;99.90
2523;DHT22;1272;53.332;9.860;2022-12-24T01:01:02;5.60;99.90
2523;DHT22;1272;53.332;9.860;2022-12-24T01:03:28;5.60;99.90
2523;DHT22;1272;53.332;9.860;2022-12-24T01:06:05;5.50;99.90
2523;DHT22;1272;53.332;9.860;2022-12-24T01:08:32;5.50;99.90
2523;DHT22;1272;53.332;9.860;2022-12-24T01:10:58;5.50;99.90
2523;DHT22;1272;53.332;9.860;2022-12-24T01:13:24;5.40;99.90
2523;DHT22;1272;53.332;9.860;2022-12-24T01:15:50;5.50;99.90
2523;DHT22;1272;53.332;9.860;2022-12-24T01:18:16;5.50;99.90
2523;DHT22;1272;53.332;9.860;2022-12-24T01:20:41;5.50;99.90
2523;DHT22;1272;53.332;9.860;2022-12-24T01:23:07;5.50;99.90
2523;DHT22;1272;53.332;9.860;2022-12-24T01:25:33;5.50;99.90
2523;DHT22;1272;53.332;9.860;2022-12-24T01:27:59;5.50;99.90
2523;DHT22;1272;53.332;9.860;2022-12-24T01:30:24;5.60;99.90
2523;DHT22;1272;53.332;9.860;2022-12-24T01:32:50;5.60;99.90
2523;DHT22;1272;53.332;9.860;2022-12-24T01:35:16;5.50;99.90
2523;DHT22;1272;53.332;9.860;2022-12-24T01:37:42;5.50;99.90
2523;DHT22;1272;53.332;9.860;2022-12-24T01:40:13;5.50;99.90
2523;DHT22;1272;53.332;9.860;2022-12-24T01:42:58;5.50;99.90
2523;DHT22;1272;53.332;9.860;2022-12-24T01:45:51;5.50;99.90
2523;DHT22;1272;53.332;9.860;2022-12-24T01:50:59;5.50;99.90
2523;DHT22;1272;53.332;9.860;2022-12-24T01:53:26;5.50;99.90
2523;DHT22;1272;53.332;9.860;2022-12-24T01:55:52;5.50;99.90
2523;DHT22;1272;53.332;9.860;2022-12-24T01:58:20;5.60;99.90
2523;DHT22;1272;53.332;9.860;2022-12-24T02:00:46;5.60;99.90
2523;DHT22;1272;53.332;9.860;2022-12-24T02:03:12;5.50;99.90
2523;DHT22;1272;53.332;9.860;2022-12-24T02:05:51;5.50;99.90
2523;DHT22;1272;53.332;9.860;2022-12-24T02:08:18;5.50;99.90
2523;DHT22;1272;53.332;9.860;2022-12-24T02:10:45;5.50;99.90
2523;DHT22;1272;53.332;9.860;2022-12-24T02:13:16;5.50;99.90
2523;DHT22;1272;53.332;9.860;2022-12-24T02:16:11;5.50;99.90
2523;DHT22;1272;53.332;9.860;2022-12-24T02:18:58;5.50;99.90
2523;DHT22;1272;53.332;9.860;2022-12-24T02:21:44;5.50;99.90
2523;DHT22;1272;53.332;9.860;2022-12-24T02:27:10;5.50;99.90
2523;DHT22;1272;53.332;9.860;2022-12-24T02:30:27;5.40;99.90
2523;DHT22;1272;53.332;9.860;2022-12-24T02:33:07;5.50;99.90
2523;DHT22;1272;53.332;9.860;2022-12-24T02:36:00;5.40;99.90
2523;DHT22;1272;53.332;9.860;2022-12-24T02:38:33;5.50;99.90
2523;DHT22;1272;53.332;9.860;2022-12-24T02:41:10;5.40;99.90
2523;DHT22;1272;53.332;9.860;2022-12-24T02:43:40;5.50;99.90
2523;DHT22;1272;53.332;9.860;2022-12-24T02:46:24;5.50;99.90
2523;DHT22;1272;53.332;9.860;2022-12-24T02:48:51;5.50;99.90
2523;DHT22;1272;53.332;9.860;2022-12-24T02:51:21;5.50;99.90
2523;DHT22;1272;53.332;9.860;2022-12-24T02:53:47;5.40;99.90
2523;DHT22;1272;53.332;9.860;2022-12-24T02:59:25;5.40;99.90
2523;DHT22;1272;53.332;9.860;2022-12-24T03:02:11;5.40;99.90
2523;DHT22;1272;53.332;9.860;2022-12-24T03:04:58;5.40;99.90
2523;DHT22;1272;53.332;9.860;2022-12-24T03:13:03;5.40;99.90
2523;DHT22;1272;53.332;9.860;2022-12-24T03:15:31;5.40;99.90
2523;DHT22;1272;53.332;9.860;2022-12-24T03:17:59;5.40;99.90
2523;DHT22;1272;53.332;9.860;2022-12-24T03:20:32;5.40;99.90
2523;DHT22;1272;53.332;9.860;2022-12-24T03:23:02;5.40;99.90
2523;DHT22;1272;53.332;9.860;2022-12-24T03:25:28;5.40;99.90
2523;DHT22;1272;53.332;9.860;2022-12-24T03:27:55;5.30;99.90
2523;DHT22;1272;53.332;9.860;2022-12-24T03:30:22;5.30;99.90
2523;DHT22;1272;53.332;9.860;2022-12-24T03:33:08;5.40;99.90
2523;DHT22;1272;53.332;9.860;2022-12-24T03:35:34;5.40;99.90
2523;DHT22;1272;53.332;9.860;2022-12-24T03:38:00;5.40;99.90
2523;DHT22;1272;53.332;9.860;2022-12-24T03:40:25;5.40;99.90
2523;DHT22;1272;53.332;9.860;2022-12-24T03:42:51;5.40;99.90
2523;DHT22;1272;53.332;9.860;2022-12-24T03:45:17;5.50;99.90
2523;DHT22;1272;53.332;9.860;2022-12-24T03:47:43;5.50;99.90
2523;DHT22;1272;53.332;9.860;2022-12-24T03:50:09;5.50;99.90
2523;DHT22;1272;53.332;9.860;2022-12-24T03:52:34;5.40;99.90
2523;DHT22;1272;53.332;9.860;2022-12-24T03:55:00;5.40;99.90
2523;DHT22;1272;53.332;9.860;2022-12-24T03:57:26;5.40;99.90
2523;DHT22;1272;53.332;9.860;2022-12-24T03:59:51;5.50;99.90
2523;DHT22;1272;53.332;9.860;2022-12-24T04:02:17;5.40;99.90
2523;DHT22;1272;53.332;9.860;2022-12-24T04:04:43;5.40;99.90
2523;DHT22;1272;53.332;9.860;2022-12-24T04:07:09;5.40;99.90
2523;DHT22;1272;53.332;9.860;2022-12-24T04:09:35;5.40;99.90
2523;DHT22;1272;53.332;9.860;2022-12-24T04:12:00;5.40;99.90
2523;DHT22;1272;53.332;9.860;2022-12-24T04:14:26;5.30;99.90
2523;DHT22;1272;53.332;9.860;2022-12-24T04:16:52;5.30;99.90
2523;DHT22;1272;53.332;9.860;2022-12-24T04:19:17;5.30;99.90
2523;DHT22;1272;53.332;9.860;2022-12-24T04:21:43;5.40;99.90
2523;DHT22;1272;53.332;9.860;2022-12-24T04:24:09;5.40;99.90
2523;DHT22;1272;53.332;9.860;2022-12-24T04:26:34;5.30;99.90
2523;DHT22;1272;53.332;9.860;2022-12-24T04:29:00;5.30;99.90
2523;DHT22;1272;53.332;9.860;2022-12-24T04:31:26;5.30;99.90
2523;DHT22;1272;53.332;9.860;2022-12-24T04:33:51;5.30;99.90
2523;DHT22;1272;53.332;9.860;2022-12-24T04:36:18;5.30;99.90
2523;DHT22;1272;53.332;9.860;2022-12-24T04:38:46;5.30;99.90
2523;DHT22;1272;53.332;9.860;2022-12-24T04:41:14;5.40;99.90
2523;DHT22;1272;53.332;9.860;2022-12-24T04:43:41;5.40;99.90
2523;DHT22;1272;53.332;9.860;2022-12-24T04:46:09;5.30;99.90
2523;DHT22;1272;53.332;9.860;2022-12-24T04:48:36;5.30;99.90
2523;DHT22;1272;53.332;9.860;2022-12-24T04:51:03;5.30;99.90
2523;DHT22;1272;53.332;9.860;2022-12-24T04:53:30;5.40;99.90
2523;DHT22;1272;53.332;9.860;2022-12-24T04:55:57;5.40;99.90
2523;DHT22;1272;53.332;9.860;2022-12-24T04:58:25;5.40;99.90
2523;DHT22;1272;53.332;9.860;2022-12-24T05:00:54;5.40;99.90
2523;DHT22;1272;53.332;9.860;2022-12-24T05:03:23;5.30;99.90
2523;DHT22;1272;53.332;9.860;2022-12-24T05:05:49;5.40;99.90
2523;DHT22;1272;53.332;9.860;2022-12-24T05:08:14;5.40;99.90
2523;DHT22;1272;53.332;9.860;2022-12-24T05:10:40;5.30;99.90
2523;DHT22;1272;53.332;9.860;2022-12-24T05:13:06;5.30;99.90
2523;DHT22;1272;53.332;9.860;2022-12-24T05:15:31;5.40;99.90
2523;DHT22;1272;53.332;9.860;2022-12-24T05:17:57;5.40;99.90
2523;DHT22;1272;53.332;9.860;2022-12-24T05:20:23;5.40;99.90
2523;DHT22;1272;53.332;9.860;2022-12-24T05:22:48;5.40;99.90
2523;DHT22;1272;53.332;9.860;2022-12-24T05:25:36;5.30;99.90
2523;DHT22;1272;53.332;9.860;2022-12-24T05:28:21;5.30;99.90
2523;DHT22;1272;53.332;9.860;2022-12-24T05:30:47;5.30;99.90
2523;DHT22;1272;53.332;9.860;2022-12-24T05:33:12;5.30;99.90
2523;DHT22;1272;53.332;9.860;2022-12-24T05:35:38;5.30;99.90
2523;DHT22;1272;53.332;9.860;2022-12-24T05:38:04;5.30;99.90
2523;DHT22;1272;53.332;9.860;2022-12-24T05:40:32;5.30;99.90
2523;DHT22;1272;53.332;9.860;2022-12-24T05:42:58;5.30;99.90
2523;DHT22;1272;53.332;9.860;2022-12-24T05:45:25;5.30;99.90
2523;DHT22;1272;53.332;9.860;2022-12-24T05:47:51;5.30;99.90
2523;DHT22;1272;53.332;9.860;2022-12-24T05:50:16;5.30;99.90
2523;DHT22;1272;53.332;9.860;2022-12-24T05:52:42;5.30;99.90
2523;DHT22;1272;53.332;9.860;2022-12-24T05:55:08;5.30;99.90
2523;DHT22;1272;53.332;9.860;2022-12-24T05:57:34;5.40;99.90
2523;DHT22;1272;53.332;9.860;2022-12-24T06:00:00;5.40;99.90
2523;DHT22;1272;53.332;9.860;2022-12-24T06:02:25;5.30;99.90
2523;DHT22;1272;53.332;9.860;2022-12-24T06:04:51;5.30;99.90
2523;DHT22;1272;53.332;9.860;2022-12-24T06:07:17;5.30;99.90
2523;DHT22;1272;53.332;9.860;2022-12-24T06:09:42;5.30;99.90
2523;DHT22;1272;53.332;9.860;2022-12-24T06:12:08;5.30;99.90
2523;DHT22;1272;53.332;9.860;2022-12-24T06:14:33;5.30;99.90
2523;DHT22;1272;53.332;9.860;2022-12-24T06:16:59;5.20;99.90
2523;DHT22;1272;53.332;9.860;2022-12-24T06:19:25;5.30;99.90
2523;DHT22;1272;53.332;9.860;2022-12-24T06:21:50;5.20;99.90
2523;DHT22;1272;53.332;9.860;2022-12-24T06:24:16;5.30;99.90
2523;DHT22;1272;53.332;9.860;2022-12-24T06:26:42;5.30;99.90
2523;DHT22;1272;53.332;9.860;2022-12-24T06:29:07;5.30;99.90
2523;DHT22;1272;53.332;9.860;2022-12-24T06:31:34;5.30;99.90
2523;DHT22;1272;53.332;9.860;2022-12-24T06:34:03;5.30;99.90
2523;DHT22;1272;53.332;9.860;2022-12-24T06:36:28;5.30;99.90
2523;DHT22;1272;53.332;9.860;2022-12-24T06:38:54;5.30;99.90
2523;DHT22;1272;53.332;9.860;2022-12-24T06:41:20;5.30;99.90
2523;DHT22;1272;53.332;9.860;2022-12-24T06:43:49;5.30;99.90
2523;DHT22;1272;53.332;9.860;2022-12-24T06:46:16;5.30;99.90
2523;DHT22;1272;53.332;9.860;2022-12-24T06:48:45;5.40;99.90
2523;DHT22;1272;53.332;9.860;2022-12-24T06:51:13;5.30;99.90
2523;DHT22;1272;53.332;9.860;2022-12-24T06:53:39;5.30;99.90
2523;DHT22;1272;53.332;9.860;2022-12-24T06:56:08;5.30;99.90
2523;DHT22;1272;53.332;9.860;2022-12-24T06:58:34;5.30;99.90
2523;DHT22;1272;53.332;9.860;2022-12-24T07:01:01;5.30;99.90
2523;DHT22;1272;53.332;9.860;2022-12-24T07:03:28;5.30;99.90
2523;DHT22;1272;53.332;9.860;2022-12-24T07:05:54;5.30;99.90
2523;DHT22;1272;53.332;9.860;2022-12-24T07:08:20;5.30;99.90
2523;DHT22;1272;53.332;9.860;2022-12-24T07:10:48;5.30;99.90
2523;DHT22;1272;53.332;9.860;2022-12-24T07:13:14;5.30;99.90
2523;DHT22;1272;53.332;9.860;2022-12-24T07:15:40;5.30;99.90
2523;DHT22;1272;53.332;9.860;2022-12-24T07:18:06;5.30;99.90
2523;DHT22;1272;53.332;9.860;2022-12-24T07:20:31;5.30;99.90
2523;DHT22;1272;53.332;9.860;2022-12-24T07:22:57;5.30;99.90
2523;DHT22;1272;53.332;9.860;2022-12-24T07:25:23;5.30;99.90
2523;DHT22;1272;53.332;9.860;2022-12-24T07:27:48;5.30;99.90
2523;DHT22;1272;53.332;9.860;2022-12-24T07:30:14;5.20;99.90
2523;DHT22;1272;53.332;9.860;2022-12-24T07:32:40;5.20;99.90
2523;DHT22;1272;53.332;9.860;2022-12-24T07:35:06;5.30;99.90
2523;DHT22;1272;53.332;9.860;2022-12-24T07:37:32;5.30;99.90
2523;DHT22;1272;53.332;9.860;2022-12-24T07:39:57;5.30;99.90
2523;DHT22;1272;53.332;9.860;2022-12-24T07:42:23;5.30;99.90
2523;DHT22;1272;53.332;9.860;2022-12-24T07:44:49;5.30;99.90
2523;DHT22;1272;53.332;9.860;2022-12-24T07:47:15;5.30;99.90
2523;DHT22;1272;53.332;9.860;2022-12-24T07:49:40;5.30;99.90
2523;DHT22;1272;53.332;9.860;2022-12-24T07:52:06;5.30;99.90
2523;DHT22;1272;53.332;9.860;2022-12-24T07:54:32;5.30;99.90
2523;DHT22;1272;53.332;9.860;2022-12-24T07:56:58;5.30;99.90
2523;DHT22;1272;53.332;9.860;2022-12-24T07:59:23;5.30;99.90
2523;DHT22;1272;53.332;9.860;2022-12-24T08:01:49;5.30;99.90
2523;DHT22;1272;53.332;9.860;2022-12-24T08:04:15;5.30;99.90
2523;DHT22;1272;53.332;9.860;2022-12-24T08:06:40;5.30;99.90
2523;DHT22;1272;53.332;9.860;2022-12-24T08:09:06;5.40;99.90
2523;DHT22;1272;53.332;9.860;2022-12-24T08:11:32;5.40;99.90
2523;DHT22;1272;53.332;9.860;2022-12-24T08:13:57;5.40;99.90
2523;DHT22;1272;53.332;9.860;2022-12-24T08:16:23;5.40;99.90
2523;DHT22;1272;53.332;9.860;2022-12-24T08:18:49;5.40;99.90
2523;DHT22;1272;53.332;9.860;2022-12-24T08:21:14;5.40;99.90
2523;DHT22;1272;53.332;9.860;2022-12-24T08:23:40;5.40;99.90
2523;DHT22;1272;53.332;9.860;2022-12-24T08:26:07;5.40;99.90
2523;DHT22;1272;53.332;9.860;2022-12-24T08:28:33;5.40;99.90
2523;DHT22;1272;53.332;9.860;2022-12-24T08:30:59;5.40;99.90
2523;DHT22;1272;53.332;9.860;2022-12-24T08:33:25;5.40;99.90
2523;DHT22;1272;53.332;9.860;2022-12-24T08:35:54;5.40;99.90
2523;DHT22;1272;53.332;9.860;2022-12-24T08:38:21;5.40;99.90
2523;DHT22;1272;53.332;9.860;2022-12-24T08:40:47;5.40;99.90
2523;DHT22;1272;53.332;9.860;2022-12-24T08:43:15;5.40;99.90
2523;DHT22;1272;53.332;9.860;2022-12-24T08:45:40;5.40;99.90
2523;DHT22;1272;53.332;9.860;2022-12-24T08:48:07;5.40;99.90
2523;DHT22;1272;53.332;9.860;2022-12-24T08:50:33;5.50;99.90
2523;DHT22;1272;53.332;9.860;2022-12-24T08:52:59;5.50;99.90
2523;DHT22;1272;53.332;9.860;2022-12-24T08:55:25;5.50;99.90
2523;DHT22;1272;53.332;9.860;2022-12-24T08:57:51;5.50;99.90
2523;DHT22;1272;53.332;9.860;2022-12-24T09:00:17;5.50;99.90
2523;DHT22;1272;53.332;9.860;2022-12-24T09:02:42;5.50;99.90
2523;DHT22;1272;53.332;9.860;2022-12-24T09:05:08;5.50;99.90
2523;DHT22;1272;53.332;9.860;2022-12-24T09:07:34;5.50;99.90
2523;DHT22;1272;53.332;9.860;2022-12-24T09:10:00;5.60;99.90
2523;DHT22;1272;53.332;9.860;2022-12-24T09:12:26;5.60;99.90
2523;DHT22;1272;53.332;9.860;2022-12-24T09:14:51;5.60;99.90
2523;DHT22;1272;53.332;9.860;2022-12-24T09:17:19;5.60;99.90
2523;DHT22;1272;53.332;9.860;2022-12-24T09:19:50;5.60;99.90
2523;DHT22;1272;53.332;9.860;2022-12-24T09:22:16;5.60;99.90
2523;DHT22;1272;53.332;9.860;2022-12-24T09:24:42;5.60;99.90
2523;DHT22;1272;53.332;9.860;2022-12-24T09:27:07;5.60;99.90
2523;DHT22;1272;53.332;9.860;2022-12-24T09:29:33;5.60;99.90
2523;DHT22;1272;53.332;9.860;2022-12-24T09:31:59;5.60;99.90
2523;DHT22;1272;53.332;9.860;2022-12-24T09:34:26;5.60;99.90
2523;DHT22;1272;53.332;9.860;2022-12-24T09:36:51;5.70;99.90
2523;DHT22;1272;53.332;9.860;2022-12-24T09:39:19;5.70;99.90
2523;DHT22;1272;53.332;9.860;2022-12-24T09:42:11;5.70;99.90
2523;DHT22;1272;53.332;9.860;2022-12-24T09:45:17;5.70;99.90
2523;DHT22;1272;53.332;9.860;2022-12-24T09:47:54;5.70;99.90
2523;DHT22;1272;53.332;9.860;2022-12-24T09:50:41;5.80;99.90
2523;DHT22;1272;53.332;9.860;2022-12-24T09:56:01;5.90;99.90
2523;DHT22;1272;53.332;9.860;2022-12-24T09:58:58;5.90;99.90
2523;DHT22;1272;53.332;9.860;2022-12-24T10:01:24;5.90;99.90
2523;DHT22;1272;53.332;9.860;2022-12-24T10:03:51;6.00;99.90
2523;DHT22;1272;53.332;9.860;2022-12-24T10:06:20;6.00;99.90
2523;DHT22;1272;53.332;9.860;2022-12-24T10:14:15;6.10;99.90
2523;DHT22;1272;53.332;9.860;2022-12-24T10:24:26;6.40;99.90
2523;DHT22;1272;53.332;9.860;2022-12-24T10:27:01;6.50;99.90
2523;DHT22;1272;53.332;9.860;2022-12-24T10:29:33;6.60;99.90
2523;DHT22;1272;53.332;9.860;2022-12-24T10:32:42;6.70;99.90
2523;DHT22;1272;53.332;9.860;2022-12-24T10:34:59;6.90;99.90
2523;DHT22;1272;53.332;9.860;2022-12-24T10:37:28;7.00;99.90
2523;DHT22;1272;53.332;9.860;2022-12-24T10:39:55;7.10;99.90
2523;DHT22;1272;53.332;9.860;2022-12-24T10:42:26;7.20;99.90
2523;DHT22;1272;53.332;9.860;2022-12-24T10:45:00;7.30;99.90
2523;DHT22;1272;53.332;9.860;2022-12-24T10:47:28;7.40;99.90
2523;DHT22;1272;53.332;9.860;2022-12-24T10:50:00;7.40;99.90
2523;DHT22;1272;53.332;9.860;2022-12-24T10:52:32;7.50;99.90
2523;DHT22;1272;53.332;9.860;2022-12-24T10:57:45;7.70;99.90
2523;DHT22;1272;53.332;9.860;2022-12-24T11:00:22;7.70;99.90
2523;DHT22;1272;53.332;9.860;2022-12-24T11:02:49;7.70;99.90
2523;DHT22;1272;53.332;9.860;2022-12-24T11:05:34;7.70;99.90
2523;DHT22;1272;53.332;9.860;2022-12-24T11:08:05;7.80;99.90
2523;DHT22;1272;53.332;9.860;2022-12-24T11:10:35;7.80;99.90
2523;DHT22;1272;53.332;9.860;2022-12-24T11:13:04;7.80;99.90
2523;DHT22;1272;53.332;9.860;2022-12-24T11:15:31;7.80;99.90
2523;DHT22;1272;53.332;9.860;2022-12-24T11:18:04;7.90;99.90
2523;DHT22;1272;53.332;9.860;2022-12-24T11:20:32;7.90;99.90
2523;DHT22;1272;53.332;9.860;2022-12-24T11:22:59;8.00;99.90
2523;DHT22;1272;53.332;9.860;2022-12-24T11:25:28;8.00;99.90
2523;DHT22;1272;53.332;9.860;2022-12-24T11:27:57;8.10;99.90
2523;DHT22;1272;53.332;9.860;2022-12-24T11:30:34;8.10;99.90
2523;DHT22;1272;53.332;9.860;2022-12-24T11:35:29;8.30;99.90
2523;DHT22;1272;53.332;9.860;2022-12-24T11:40:38;8.30;99.90
2523;DHT22;1272;53.332;9.860;2022-12-24T11:43:05;8.40;99.90
2523;DHT22;1272;53.332;9.860;2022-12-24T11:45:32;8.30;99.90
2523;DHT22;1272;53.332;9.860;2022-12-24T11:47:59;8.30;99.90
2523;DHT22;1272;53.332;9.860;2022-12-24T11:50:31;8.30;99.90
2523;DHT22;1272;53.332;9.860;2022-12-24T11:53:06;8.40;99.90
2523;DHT22;1272;53.332;9.860;2022-12-24T12:03:39;8.50;99.90
2523;DHT22;1272;53.332;9.860;2022-12-24T12:09:40;8.40;99.90
2523;DHT22;1272;53.332;9.860;2022-12-24T12:11:42;8.40;99.90
2523;DHT22;1272;53.332;9.860;2022-12-24T12:14:17;8.40;99.90
2523;DHT22;1272;53.332;9.860;2022-12-24T12:17:34;8.50;99.90
2523;DHT22;1272;53.332;9.860;2022-12-24T12:20:11;8.60;99.90
2523;DHT22;1272;53.332;9.860;2022-12-24T12:25:37;8.90;99.90
2523;DHT22;1272;53.332;9.860;2022-12-24T12:28:10;9.00;99.90
2523;DHT22;1272;53.332;9.860;2022-12-24T12:30:40;9.00;99.90
2523;DHT22;1272;53.332;9.860;2022-12-24T12:33:32;9.00;99.90
2523;DHT22;1272;53.332;9.860;2022-12-24T12:36:00;9.00;99.90
2523;DHT22;1272;53.332;9.860;2022-12-24T12:38:27;9.00;99.90
2523;DHT22;1272;53.332;9.860;2022-12-24T12:41:22;9.00;99.90
2523;DHT22;1272;53.332;9.860;2022-12-24T12:57:32;8.90;99.90
2523;DHT22;1272;53.332;9.860;2022-12-24T13:00:05;8.90;99.90
2523;DHT22;1272;53.332;9.860;2022-12-24T13:10:49;8.90;99.90
2523;DHT22;1272;53.332;9.860;2022-12-24T13:21:53;9.00;99.90
2523;DHT22;1272;53.332;9.860;2022-12-24T13:24:25;9.10;99.90
2523;DHT22;1272;53.332;9.860;2022-12-24T13:27:04;9.10;99.90
2523;DHT22;1272;53.332;9.860;2022-12-24T13:34:54;9.00;99.90
2523;DHT22;1272;53.332;9.860;2022-12-24T13:50:49;9.00;99.90
2523;DHT22;1272;53.332;9.860;2022-12-24T13:53:31;9.00;99.90
2523;DHT22;1272;53.332;9.860;2022-12-24T13:58:49;9.00;99.90
2523;DHT22;1272;53.332;9.860;2022-12-24T14:01:21;8.90;99.90
2523;DHT22;1272;53.332;9.860;2022-12-24T14:03:51;8.90;99.90
2523;DHT22;1272;53.332;9.860;2022-12-24T14:06:30;8.90;99.90
2523;DHT22;1272;53.332;9.860;2022-12-24T14:09:15;8.90;99.90
2523;DHT22;1272;53.332;9.860;2022-12-24T14:14:31;8.70;99.90
2523;DHT22;1272;53.332;9.860;2022-12-24T14:17:02;8.70;99.90
2523;DHT22;1272;53.332;9.860;2022-12-24T14:19:41;8.60;99.90
2523;DHT22;1272;53.332;9.860;2022-12-24T14:22:30;8.60;99.90
2523;DHT22;1272;53.332;9.860;2022-12-24T14:25:20;8.50;99.90
2523;DHT22;1272;53.332;9.860;2022-12-24T14:28:02;8.50;99.90
2523;DHT22;1272;53.332;9.860;2022-12-24T14:30:29;8.50;99.90
2523;DHT22;1272;53.332;9.860;2022-12-24T14:32:55;8.50;99.90
2523;DHT22;1272;53.332;9.860;2022-12-24T14:35:29;8.40;99.90
2523;DHT22;1272;53.332;9.860;2022-12-24T14:38:05;8.40;99.90
2523;DHT22;1272;53.332;9.860;2022-12-24T14:41:02;8.40;99.90
2523;DHT22;1272;53.332;9.860;2022-12-24T14:43:41;8.40;99.90
2523;DHT22;1272;53.332;9.860;2022-12-24T14:48:43;8.30;99.90
2523;DHT22;1272;53.332;9.860;2022-12-24T14:51:28;8.40;99.90
2523;DHT22;1272;53.332;9.860;2022-12-24T14:54:28;8.30;99.90
2523;DHT22;1272;53.332;9.860;2022-12-24T14:57:17;8.30;99.90
2523;DHT22;1272;53.332;9.860;2022-12-24T15:05:07;8.40;99.90
2523;DHT22;1272;53.332;9.860;2022-12-24T15:07:35;8.40;99.90
2523;DHT22;1272;53.332;9.860;2022-12-24T15:10:03;8.50;99.90
2523;DHT22;1272;53.332;9.860;2022-12-24T15:12:30;8.60;99.90
2523;DHT22;1272;53.332;9.860;2022-12-24T15:14:56;8.60;99.90
2523;DHT22;1272;53.332;9.860;2022-12-24T15:17:23;8.60;99.90
2523;DHT22;1272;53.332;9.860;2022-12-24T15:19:50;8.50;99.90
2523;DHT22;1272;53.332;9.860;2022-12-24T15:22:27;8.50;99.90
2523;DHT22;1272;53.332;9.860;2022-12-24T15:24:53;8.50;99.90
2523;DHT22;1272;53.332;9.860;2022-12-24T15:27:22;8.50;99.90
2523;DHT22;1272;53.332;9.860;2022-12-24T15:29:54;8.50;99.90
2523;DHT22;1272;53.332;9.860;2022-12-24T15:32:20;8.50;99.90
2523;DHT22;1272;53.332;9.860;2022-12-24T15:34:54;8.50;99.90
2523;DHT22;1272;53.332;9.860;2022-12-24T15:37:33;8.40;99.90
2523;DHT22;1272;53.332;9.860;2022-12-24T15:40:08;8.40;99.90
2523;DHT22;1272;53.332;9.860;2022-12-24T15:42:35;8.50;99.90
2523;DHT22;1272;53.332;9.860;2022-12-24T15:45:26;8.50;99.90
2523;DHT22;1272;53.332;9.860;2022-12-24T15:48:05;8.50;99.90
2523;DHT22;1272;53.332;9.860;2022-12-24T15:50:34;8.40;99.90
2523;DHT22;1272;53.332;9.860;2022-12-24T15:53:05;8.40;99.90
2523;DHT22;1272;53.332;9.860;2022-12-24T15:58:26;8.50;99.90
2523;DHT22;1272;53.332;9.860;2022-12-24T16:01:25;8.50;99.90
2523;DHT22;1272;53.332;9.860;2022-12-24T16:06:16;8.40;99.90
2523;DHT22;1272;53.332;9.860;2022-12-24T16:08:43;8.40;99.90
2523;DHT22;1272;53.332;9.860;2022-12-24T16:11:20;8.50;99.90
2523;DHT22;1272;53.332;9.860;2022-12-24T16:13:57;8.50;99.90
2523;DHT22;1272;53.332;9.860;2022-12-24T16:16:50;8.50;99.90
2523;DHT22;1272;53.332;9.860;2022-12-24T16:19:36;8.40;99.90
2523;DHT22;1272;53.332;9.860;2022-12-24T16:22:02;8.40;99.90
2523;DHT22;1272;53.332;9.860;2022-12-24T16:24:48;8.40;99.90
2523;DHT22;1272;53.332;9.860;2022-12-24T16:27:16;8.40;99.90
2523;DHT22;1272;53.332;9.860;2022-12-24T16:29:42;8.40;99.90
2523;DHT22;1272;53.332;9.860;2022-12-24T16:32:37;8.40;99.90
2523;DHT22;1272;53.332;9.860;2022-12-24T16:35:06;8.40;99.90
2523;DHT22;1272;53.332;9.860;2022-12-24T16:37:32;8.40;99.90
2523;DHT22;1272;53.332;9.860;2022-12-24T16:39:59;8.40;99.90
2523;DHT22;1272;53.332;9.860;2022-12-24T16:42:25;8.40;99.90
2523;DHT22;1272;53.332;9.860;2022-12-24T16:45:17;8.40;99.90
2523;DHT22;1272;53.332;9.860;2022-12-24T16:47:42;8.40;99.90
2523;DHT22;1272;53.332;9.860;2022-12-24T16:50:14;8.40;99.90
2523;DHT22;1272;53.332;9.860;2022-12-24T16:52:40;8.40;99.90
2523;DHT22;1272;53.332;9.860;2022-12-24T16:55:06;8.40;99.90
2523;DHT22;1272;53.332;9.860;2022-12-24T16:57:32;8.40;99.90
2523;DHT22;1272;53.332;9.860;2022-12-24T16:59:58;8.40;99.90
2523;DHT22;1272;53.332;9.860;2022-12-24T17:02:23;8.30;99.90
2523;DHT22;1272;53.332;9.860;2022-12-24T17:04:49;8.30;99.90
2523;DHT22;1272;53.332;9.860;2022-12-24T17:07:17;8.30;99.90
2523;DHT22;1272;53.332;9.860;2022-12-24T17:09:43;8.40;99.90
2523;DHT22;1272;53.332;9.860;2022-12-24T17:12:09;8.30;99.90
2523;DHT22;1272;53.332;9.860;2022-12-24T17:14:37;8.30;99.90
2523;DHT22;1272;53.332;9.860;2022-12-24T17:17:03;8.30;99.90
2523;DHT22;1272;53.332;9.860;2022-12-24T17:19:35;8.40;99.90
2523;DHT22;1272;53.332;9.860;2022-12-24T17:22:00;8.30;99.90
2523;DHT22;1272;53.332;9.860;2022-12-24T17:24:26;8.40;99.90
2523;DHT22;1272;53.332;9.860;2022-12-24T17:26:52;8.30;99.90
2523;DHT22;1272;53.332;9.860;2022-12-24T17:29:17;8.30;99.90
2523;DHT22;1272;53.332;9.860;2022-12-24T17:31:43;8.30;99.90
2523;DHT22;1272;53.332;9.860;2022-12-24T17:34:09;8.30;99.90
2523;DHT22;1272;53.332;9.860;2022-12-24T17:36:34;8.30;99.90
2523;DHT22;1272;53.332;9.860;2022-12-24T17:39:00;8.30;99.90
2523;DHT22;1272;53.332;9.860;2022-12-24T17:41:29;8.40;99.90
2523;DHT22;1272;53.332;9.860;2022-12-24T17:43:54;8.30;99.90
2523;DHT22;1272;53.332;9.860;2022-12-24T17:46:22;8.30;99.90
2523;DHT22;1272;53.332;9.860;2022-12-24T17:48:49;8.30;99.90
2523;DHT22;1272;53.332;9.860;2022-12-24T17:51:18;8.30;99.90
2523;DHT22;1272;53.332;9.860;2022-12-24T17:53:44;8.30;99.90
2523;DHT22;1272;53.332;9.860;2022-12-24T17:56:11;8.30;99.90
2523;DHT22;1272;53.332;9.860;2022-12-24T17:58:39;8.30;99.90
2523;DHT22;1272;53.332;9.860;2022-12-24T18:01:05;8.30;99.90
2523;DHT22;1272;53.332;9.860;2022-12-24T18:03:31;8.30;99.90
2523;DHT22;1272;53.332;9.860;2022-12-24T18:06:08;8.20;99.90
2523;DHT22;1272;53.332;9.860;2022-12-24T18:08:34;8.20;99.90
2523;DHT22;1272;53.332;9.860;2022-12-24T18:11:19;8.20;99.90
2523;DHT22;1272;53.332;9.860;2022-12-24T18:13:46;8.20;99.90
2523;DHT22;1272;53.332;9.860;2022-12-24T18:16:21;8.20;99.90
2523;DHT22;1272;53.332;9.860;2022-12-24T18:18:48;8.30;99.90
2523;DHT22;1272;53.332;9.860;2022-12-24T18:21:15;8.20;99.90
2523;DHT22;1272;53.332;9.860;2022-12-24T18:23:42;8.30;99.90
2523;DHT22;1272;53.332;9.860;2022-12-24T18:26:09;8.20;99.90
2523;DHT22;1272;53.332;9.860;2022-12-24T18:28:35;8.20;99.90
2523;DHT22;1272;53.332;9.860;2022-12-24T18:31:04;8.20;99.90
2523;DHT22;1272;53.332;9.860;2022-12-24T18:33:34;8.20;99.90
2523;DHT22;1272;53.332;9.860;2022-12-24T18:36:00;8.10;99.90